Portada
METAR-TAF:

METAR-TAF

Aeroports :

Logronyo, Espanya

latitud: 42-27N, longitud: 002-20W, altitud: 353 m

Observació

L'informe es va fer fa 46 minuts, a les 22:30 UTC
Vent calma
Temperatura 7°C
Humitat 93%
Pressió 1020 hPa
Visibilitat 10 km o més

METAR: LELO 212230Z AUTO 00000KT 9999 NCD 07/06 Q1020

Hora: 01:16 (23:16 UTC)

Pronòstic

L'informe es va fer fa 6 hores i 16 minuts, a les 17:00 UTC
Pronòstic vàlid del 21 a les 18 UTC al 22 a les 03 UTC
Vent 5 kt amb direcció variable
Visibilitat 10 km o més
Escasses núvols a una alçada de 3500 ft
Probabilitat 40% :
Temporalment
l' 21 a les 18 UTC al 21 a les 20 UTC
Escasses núvols a una alçada de 4000 ft, Cumulus congestus.
Probabilitat 30% :
Temporalment
l' 21 a les 23 UTC al 22 a les 03 UTC
Visibilitat: 2500 m
boirina

TAF: LELO 211700Z 2118/2203 VRB05KT 9999 FEW035 PROB40 TEMPO 2118/2120 FEW040TCU PROB30 TEMPO 2123/2203 2500 BR

Observacions i pronòstics meteorològics de més de 4000 aeroports (METAR i TAF).

Les estacions disponibles són els punts grocs i vermells al mapa.

Posi el ratolí al punt desitjat per veure el nom de l'estació.

Feu clic per veure les observacions i els pronòstics meteorològics.

Per canviar el mapa: feu clic els botons verds amb una creu de color negre per apropar; al botó verd amb un guió per allunyar la imatge; o en les fletxes verdes per a mapes adjacents.


METAR-TAF: